sensor_id;sensor_type;location;lat;lon;timestamp;P1;durP1;ratioP1;P2;durP2;ratioP2
81841;SDS011;71284;50.918;7.092;2024-01-30T00:01:34;6.43;;;5.60;;
81841;SDS011;71284;50.918;7.092;2024-01-30T00:04:00;9.05;;;6.20;;
81841;SDS011;71284;50.918;7.092;2024-01-30T00:06:27;12.35;;;7.78;;
81841;SDS011;71284;50.918;7.092;2024-01-30T00:08:54;18.20;;;7.40;;
81841;SDS011;71284;50.918;7.092;2024-01-30T00:11:20;8.98;;;6.60;;
81841;SDS011;71284;50.918;7.092;2024-01-30T00:13:47;11.27;;;7.85;;
81841;SDS011;71284;50.918;7.092;2024-01-30T00:16:22;10.18;;;7.95;;
81841;SDS011;71284;50.918;7.092;2024-01-30T00:18:50;10.73;;;6.93;;
81841;SDS011;71284;50.918;7.092;2024-01-30T00:21:17;18.10;;;9.93;;
81841;SDS011;71284;50.918;7.092;2024-01-30T00:23:43;8.93;;;6.55;;
81841;SDS011;71284;50.918;7.092;2024-01-30T00:26:10;8.43;;;7.00;;
81841;SDS011;71284;50.918;7.092;2024-01-30T00:28:37;8.82;;;5.57;;
81841;SDS011;71284;50.918;7.092;2024-01-30T00:31:04;9.50;;;7.93;;
81841;SDS011;71284;50.918;7.092;2024-01-30T00:33:30;10.52;;;7.00;;
81841;SDS011;71284;50.918;7.092;2024-01-30T00:35:57;10.55;;;7.50;;
81841;SDS011;71284;50.918;7.092;2024-01-30T00:38:24;11.63;;;8.02;;
81841;SDS011;71284;50.918;7.092;2024-01-30T00:40:50;10.70;;;7.35;;
81841;SDS011;71284;50.918;7.092;2024-01-30T00:43:17;13.90;;;8.43;;
81841;SDS011;71284;50.918;7.092;2024-01-30T00:45:43;11.27;;;7.30;;
81841;SDS011;71284;50.918;7.092;2024-01-30T00:48:10;11.45;;;6.70;;
81841;SDS011;71284;50.918;7.092;2024-01-30T00:50:37;11.10;;;6.87;;
81841;SDS011;71284;50.918;7.092;2024-01-30T00:53:03;11.75;;;6.60;;
81841;SDS011;71284;50.918;7.092;2024-01-30T00:55:30;12.90;;;7.50;;
81841;SDS011;71284;50.918;7.092;2024-01-30T00:57:56;13.02;;;7.78;;
81841;SDS011;71284;50.918;7.092;2024-01-30T01:00:23;8.27;;;7.00;;
81841;SDS011;71284;50.918;7.092;2024-01-30T01:02:50;10.75;;;6.10;;
81841;SDS011;71284;50.918;7.092;2024-01-30T01:05:16;13.45;;;6.78;;
81841;SDS011;71284;50.918;7.092;2024-01-30T01:07:43;9.13;;;6.40;;
81841;SDS011;71284;50.918;7.092;2024-01-30T01:10:09;11.52;;;7.30;;
81841;SDS011;71284;50.918;7.092;2024-01-30T01:12:36;10.40;;;7.28;;
81841;SDS011;71284;50.918;7.092;2024-01-30T01:15:03;7.60;;;6.78;;
81841;SDS011;71284;50.918;7.092;2024-01-30T01:17:29;11.55;;;7.22;;
81841;SDS011;71284;50.918;7.092;2024-01-30T01:19:56;14.00;;;7.47;;
81841;SDS011;71284;50.918;7.092;2024-01-30T01:22:22;9.60;;;7.00;;
81841;SDS011;71284;50.918;7.092;2024-01-30T01:24:49;13.93;;;7.22;;
81841;SDS011;71284;50.918;7.092;2024-01-30T01:27:17;8.23;;;6.57;;
81841;SDS011;71284;50.918;7.092;2024-01-30T01:29:43;13.32;;;7.03;;
81841;SDS011;71284;50.918;7.092;2024-01-30T01:32:10;11.77;;;7.10;;
81841;SDS011;71284;50.918;7.092;2024-01-30T01:34:36;10.60;;;7.53;;
81841;SDS011;71284;50.918;7.092;2024-01-30T01:37:03;9.52;;;7.03;;
81841;SDS011;71284;50.918;7.092;2024-01-30T01:39:30;15.45;;;8.73;;
81841;SDS011;71284;50.918;7.092;2024-01-30T01:41:56;11.35;;;7.20;;
81841;SDS011;71284;50.918;7.092;2024-01-30T01:44:23;8.48;;;7.22;;
81841;SDS011;71284;50.918;7.092;2024-01-30T01:46:49;12.37;;;6.50;;
81841;SDS011;71284;50.918;7.092;2024-01-30T01:49:16;15.68;;;7.25;;
81841;SDS011;71284;50.918;7.092;2024-01-30T01:51:43;14.05;;;6.32;;
81841;SDS011;71284;50.918;7.092;2024-01-30T01:54:09;17.52;;;6.87;;
81841;SDS011;71284;50.918;7.092;2024-01-30T01:56:36;12.23;;;7.15;;
81841;SDS011;71284;50.918;7.092;2024-01-30T01:59:06;13.43;;;7.53;;
81841;SDS011;71284;50.918;7.092;2024-01-30T02:01:34;9.20;;;6.45;;
81841;SDS011;71284;50.918;7.092;2024-01-30T02:04:00;21.75;;;7.07;;
81841;SDS011;71284;50.918;7.092;2024-01-30T02:06:27;13.07;;;7.62;;
81841;SDS011;71284;50.918;7.092;2024-01-30T02:08:54;11.38;;;5.82;;
81841;SDS011;71284;50.918;7.092;2024-01-30T02:11:20;11.38;;;6.15;;
81841;SDS011;71284;50.918;7.092;2024-01-30T02:13:46;9.13;;;6.40;;
81841;SDS011;71284;50.918;7.092;2024-01-30T02:16:13;10.48;;;6.70;;
81841;SDS011;71284;50.918;7.092;2024-01-30T02:18:40;10.23;;;7.12;;
81841;SDS011;71284;50.918;7.092;2024-01-30T02:21:07;7.65;;;6.00;;
81841;SDS011;71284;50.918;7.092;2024-01-30T02:23:33;19.27;;;7.65;;
81841;SDS011;71284;50.918;7.092;2024-01-30T02:26:00;8.93;;;6.10;;
81841;SDS011;71284;50.918;7.092;2024-01-30T02:28:27;9.13;;;6.40;;
81841;SDS011;71284;50.918;7.092;2024-01-30T02:30:53;9.77;;;6.10;;
81841;SDS011;71284;50.918;7.092;2024-01-30T02:33:20;10.43;;;5.95;;
81841;SDS011;71284;50.918;7.092;2024-01-30T02:35:47;8.77;;;5.57;;
81841;SDS011;71284;50.918;7.092;2024-01-30T02:38:15;11.75;;;5.95;;
81841;SDS011;71284;50.918;7.092;2024-01-30T02:40:40;9.70;;;6.65;;
81841;SDS011;71284;50.918;7.092;2024-01-30T02:43:07;8.07;;;4.75;;
81841;SDS011;71284;50.918;7.092;2024-01-30T02:45:33;9.30;;;5.85;;
81841;SDS011;71284;50.918;7.092;2024-01-30T02:48:00;6.45;;;5.68;;
81841;SDS011;71284;50.918;7.092;2024-01-30T02:50:26;8.48;;;5.97;;
81841;SDS011;71284;50.918;7.092;2024-01-30T02:52:53;12.90;;;5.78;;
81841;SDS011;71284;50.918;7.092;2024-01-30T02:55:20;8.98;;;5.95;;
81841;SDS011;71284;50.918;7.092;2024-01-30T02:57:46;5.65;;;5.05;;
81841;SDS011;71284;50.918;7.092;2024-01-30T03:00:13;12.75;;;6.18;;
81841;SDS011;71284;50.918;7.092;2024-01-30T03:02:40;6.60;;;5.62;;
81841;SDS011;71284;50.918;7.092;2024-01-30T03:05:07;6.95;;;5.60;;
81841;SDS011;71284;50.918;7.092;2024-01-30T03:07:33;5.82;;;5.25;;
81841;SDS011;71284;50.918;7.092;2024-01-30T03:09:59;12.77;;;5.87;;
81841;SDS011;71284;50.918;7.092;2024-01-30T03:12:26;11.85;;;6.80;;
81841;SDS011;71284;50.918;7.092;2024-01-30T03:14:53;7.47;;;5.70;;
81841;SDS011;71284;50.918;7.092;2024-01-30T03:17:19;8.43;;;5.25;;
81841;SDS011;71284;50.918;7.092;2024-01-30T03:19:46;8.85;;;5.82;;
81841;SDS011;71284;50.918;7.092;2024-01-30T03:22:12;13.05;;;6.68;;
81841;SDS011;71284;50.918;7.092;2024-01-30T03:24:39;6.10;;;4.95;;
81841;SDS011;71284;50.918;7.092;2024-01-30T03:27:06;6.35;;;4.87;;
81841;SDS011;71284;50.918;7.092;2024-01-30T03:29:32;13.68;;;5.45;;
81841;SDS011;71284;50.918;7.092;2024-01-30T03:31:59;7.25;;;6.10;;
81841;SDS011;71284;50.918;7.092;2024-01-30T03:34:25;7.53;;;5.57;;
81841;SDS011;71284;50.918;7.092;2024-01-30T03:36:52;11.00;;;5.87;;
81841;SDS011;71284;50.918;7.092;2024-01-30T03:39:19;10.60;;;5.68;;
81841;SDS011;71284;50.918;7.092;2024-01-30T03:41:45;12.70;;;6.55;;
81841;SDS011;71284;50.918;7.092;2024-01-30T03:44:12;8.57;;;5.20;;
81841;SDS011;71284;50.918;7.092;2024-01-30T03:46:38;8.75;;;5.93;;
81841;SDS011;71284;50.918;7.092;2024-01-30T03:49:05;8.55;;;5.93;;
81841;SDS011;71284;50.918;7.092;2024-01-30T03:51:31;10.02;;;5.65;;
81841;SDS011;71284;50.918;7.092;2024-01-30T03:53:58;8.82;;;5.97;;
81841;SDS011;71284;50.918;7.092;2024-01-30T03:56:25;13.32;;;5.22;;
81841;SDS011;71284;50.918;7.092;2024-01-30T03:58:51;20.50;;;7.45;;
81841;SDS011;71284;50.918;7.092;2024-01-30T04:01:18;9.65;;;5.45;;
81841;SDS011;71284;50.918;7.092;2024-01-30T04:03:44;6.10;;;5.57;;
81841;SDS011;71284;50.918;7.092;2024-01-30T04:06:11;6.80;;;5.32;;
81841;SDS011;71284;50.918;7.092;2024-01-30T04:08:38;7.97;;;4.97;;
81841;SDS011;71284;50.918;7.092;2024-01-30T04:11:04;8.30;;;5.10;;
81841;SDS011;71284;50.918;7.092;2024-01-30T04:13:33;7.43;;;5.50;;
81841;SDS011;71284;50.918;7.092;2024-01-30T04:15:59;6.07;;;5.47;;
81841;SDS011;71284;50.918;7.092;2024-01-30T04:18:26;10.15;;;6.72;;
81841;SDS011;71284;50.918;7.092;2024-01-30T04:20:53;5.50;;;5.00;;
81841;SDS011;71284;50.918;7.092;2024-01-30T04:23:19;7.50;;;5.35;;
81841;SDS011;71284;50.918;7.092;2024-01-30T04:25:46;7.85;;;5.05;;
81841;SDS011;71284;50.918;7.092;2024-01-30T04:28:12;6.05;;;5.40;;
81841;SDS011;71284;50.918;7.092;2024-01-30T04:30:39;5.00;;;4.20;;
81841;SDS011;71284;50.918;7.092;2024-01-30T04:33:06;6.93;;;5.07;;
81841;SDS011;71284;50.918;7.092;2024-01-30T04:35:32;6.25;;;4.60;;
81841;SDS011;71284;50.918;7.092;2024-01-30T04:37:59;10.13;;;5.37;;
81841;SDS011;71284;50.918;7.092;2024-01-30T04:40:25;5.22;;;4.45;;
81841;SDS011;71284;50.918;7.092;2024-01-30T04:42:52;14.75;;;5.60;;
81841;SDS011;71284;50.918;7.092;2024-01-30T04:45:19;5.05;;;4.50;;
81841;SDS011;71284;50.918;7.092;2024-01-30T04:47:45;5.30;;;4.72;;
81841;SDS011;71284;50.918;7.092;2024-01-30T04:50:12;11.10;;;5.05;;
81841;SDS011;71284;50.918;7.092;2024-01-30T04:52:38;4.75;;;4.37;;
81841;SDS011;71284;50.918;7.092;2024-01-30T04:55:05;6.97;;;4.53;;
81841;SDS011;71284;50.918;7.092;2024-01-30T04:57:32;8.25;;;4.93;;
81841;SDS011;71284;50.918;7.092;2024-01-30T04:59:59;8.40;;;5.12;;
81841;SDS011;71284;50.918;7.092;2024-01-30T05:02:26;6.62;;;4.55;;
81841;SDS011;71284;50.918;7.092;2024-01-30T05:04:52;4.87;;;4.50;;
81841;SDS011;71284;50.918;7.092;2024-01-30T05:07:19;4.70;;;4.28;;
81841;SDS011;71284;50.918;7.092;2024-01-30T05:09:45;5.65;;;4.87;;
81841;SDS011;71284;50.918;7.092;2024-01-30T05:12:12;9.13;;;4.32;;
81841;SDS011;71284;50.918;7.092;2024-01-30T05:14:39;6.70;;;4.70;;
81841;SDS011;71284;50.918;7.092;2024-01-30T05:17:06;4.68;;;4.25;;
81841;SDS011;71284;50.918;7.092;2024-01-30T05:19:32;5.30;;;4.80;;
81841;SDS011;71284;50.918;7.092;2024-01-30T05:21:59;6.80;;;4.75;;
81841;SDS011;71284;50.918;7.092;2024-01-30T05:24:25;7.18;;;4.72;;
81841;SDS011;71284;50.918;7.092;2024-01-30T05:26:52;5.15;;;4.65;;
81841;SDS011;71284;50.918;7.092;2024-01-30T05:29:18;7.65;;;6.20;;
81841;SDS011;71284;50.918;7.092;2024-01-30T05:31:45;9.43;;;5.75;;
81841;SDS011;71284;50.918;7.092;2024-01-30T05:34:12;6.15;;;5.53;;
81841;SDS011;71284;50.918;7.092;2024-01-30T05:36:38;6.32;;;5.65;;
81841;SDS011;71284;50.918;7.092;2024-01-30T05:39:05;8.77;;;4.95;;
81841;SDS011;71284;50.918;7.092;2024-01-30T05:41:31;7.15;;;4.97;;
81841;SDS011;71284;50.918;7.092;2024-01-30T05:43:58;11.73;;;6.05;;
81841;SDS011;71284;50.918;7.092;2024-01-30T05:46:25;6.07;;;4.95;;
81841;SDS011;71284;50.918;7.092;2024-01-30T05:48:51;13.38;;;5.32;;
81841;SDS011;71284;50.918;7.092;2024-01-30T05:51:18;7.22;;;4.95;;
81841;SDS011;71284;50.918;7.092;2024-01-30T05:53:44;9.32;;;5.47;;
81841;SDS011;71284;50.918;7.092;2024-01-30T05:56:11;10.30;;;5.05;;
81841;SDS011;71284;50.918;7.092;2024-01-30T05:58:38;11.48;;;5.72;;
81841;SDS011;71284;50.918;7.092;2024-01-30T06:01:07;10.40;;;5.82;;
81841;SDS011;71284;50.918;7.092;2024-01-30T06:03:35;8.75;;;5.62;;
81841;SDS011;71284;50.918;7.092;2024-01-30T06:06:01;5.15;;;4.20;;
81841;SDS011;71284;50.918;7.092;2024-01-30T06:08:28;5.95;;;4.40;;
81841;SDS011;71284;50.918;7.092;2024-01-30T06:10:54;6.32;;;4.90;;
81841;SDS011;71284;50.918;7.092;2024-01-30T06:13:21;8.55;;;4.62;;
81841;SDS011;71284;50.918;7.092;2024-01-30T06:15:47;11.82;;;4.72;;
81841;SDS011;71284;50.918;7.092;2024-01-30T06:18:14;8.35;;;4.95;;
81841;SDS011;71284;50.918;7.092;2024-01-30T06:20:41;7.95;;;5.60;;
81841;SDS011;71284;50.918;7.092;2024-01-30T06:23:07;7.25;;;5.30;;
81841;SDS011;71284;50.918;7.092;2024-01-30T06:25:34;18.75;;;6.22;;
81841;SDS011;71284;50.918;7.092;2024-01-30T06:28:00;4.75;;;4.30;;
81841;SDS011;71284;50.918;7.092;2024-01-30T06:30:27;8.18;;;5.15;;
81841;SDS011;71284;50.918;7.092;2024-01-30T06:32:54;7.30;;;4.80;;
81841;SDS011;71284;50.918;7.092;2024-01-30T06:35:20;15.60;;;5.70;;
81841;SDS011;71284;50.918;7.092;2024-01-30T06:37:47;6.50;;;5.10;;
81841;SDS011;71284;50.918;7.092;2024-01-30T06:40:13;7.32;;;5.25;;
81841;SDS011;71284;50.918;7.092;2024-01-30T06:42:40;7.60;;;5.62;;
81841;SDS011;71284;50.918;7.092;2024-01-30T06:45:07;7.97;;;5.40;;
81841;SDS011;71284;50.918;7.092;2024-01-30T06:47:34;9.63;;;5.50;;
81841;SDS011;71284;50.918;7.092;2024-01-30T06:50:00;6.75;;;5.25;;
81841;SDS011;71284;50.918;7.092;2024-01-30T06:52:27;6.22;;;4.37;;
81841;SDS011;71284;50.918;7.092;2024-01-30T06:54:53;8.40;;;5.72;;
81841;SDS011;71284;50.918;7.092;2024-01-30T06:57:20;9.75;;;5.90;;
81841;SDS011;71284;50.918;7.092;2024-01-30T06:59:46;5.85;;;5.25;;
81841;SDS011;71284;50.918;7.092;2024-01-30T07:02:13;5.70;;;5.05;;
81841;SDS011;71284;50.918;7.092;2024-01-30T07:04:40;12.27;;;5.93;;
81841;SDS011;71284;50.918;7.092;2024-01-30T07:07:06;9.50;;;6.05;;
81841;SDS011;71284;50.918;7.092;2024-01-30T07:09:33;5.57;;;5.12;;
81841;SDS011;71284;50.918;7.092;2024-01-30T07:11:59;6.28;;;4.95;;
81841;SDS011;71284;50.918;7.092;2024-01-30T07:14:26;12.80;;;4.45;;
81841;SDS011;71284;50.918;7.092;2024-01-30T07:16:53;5.00;;;4.50;;
81841;SDS011;71284;50.918;7.092;2024-01-30T07:19:19;8.55;;;4.55;;
81841;SDS011;71284;50.918;7.092;2024-01-30T07:21:46;13.00;;;5.00;;
81841;SDS011;71284;50.918;7.092;2024-01-30T07:24:12;5.95;;;5.35;;
81841;SDS011;71284;50.918;7.092;2024-01-30T07:26:39;6.45;;;4.93;;
81841;SDS011;71284;50.918;7.092;2024-01-30T07:29:06;5.25;;;4.28;;
81841;SDS011;71284;50.918;7.092;2024-01-30T07:31:32;7.37;;;4.10;;
81841;SDS011;71284;50.918;7.092;2024-01-30T07:33:59;7.32;;;4.43;;
81841;SDS011;71284;50.918;7.092;2024-01-30T07:36:25;9.20;;;5.85;;
81841;SDS011;71284;50.918;7.092;2024-01-30T07:38:52;8.80;;;5.60;;
81841;SDS011;71284;50.918;7.092;2024-01-30T07:41:19;10.90;;;5.95;;
81841;SDS011;71284;50.918;7.092;2024-01-30T07:43:45;7.97;;;4.70;;
81841;SDS011;71284;50.918;7.092;2024-01-30T07:46:12;4.70;;;4.30;;
81841;SDS011;71284;50.918;7.092;2024-01-30T07:48:39;8.48;;;5.25;;
81841;SDS011;71284;50.918;7.092;2024-01-30T07:51:05;7.37;;;4.32;;
81841;SDS011;71284;50.918;7.092;2024-01-30T07:53:32;7.10;;;5.47;;
81841;SDS011;71284;50.918;7.092;2024-01-30T07:55:59;11.75;;;6.35;;
81841;SDS011;71284;50.918;7.092;2024-01-30T07:58:25;13.20;;;5.93;;
81841;SDS011;71284;50.918;7.092;2024-01-30T08:00:53;8.30;;;4.85;;
81841;SDS011;71284;50.918;7.092;2024-01-30T08:03:19;7.72;;;5.18;;
81841;SDS011;71284;50.918;7.092;2024-01-30T08:05:46;18.58;;;5.05;;
81841;SDS011;71284;50.918;7.092;2024-01-30T08:08:12;7.62;;;4.80;;
81841;SDS011;71284;50.918;7.092;2024-01-30T08:10:39;13.27;;;4.95;;
81841;SDS011;71284;50.918;7.092;2024-01-30T08:13:05;6.03;;;4.90;;
81841;SDS011;71284;50.918;7.092;2024-01-30T08:15:32;14.00;;;5.07;;
81841;SDS011;71284;50.918;7.092;2024-01-30T08:17:59;9.43;;;5.50;;
81841;SDS011;71284;50.918;7.092;2024-01-30T08:20:25;8.13;;;6.37;;
81841;SDS011;71284;50.918;7.092;2024-01-30T08:22:52;8.43;;;5.43;;
81841;SDS011;71284;50.918;7.092;2024-01-30T08:28:00;8.55;;;5.25;;
81841;SDS011;71284;50.918;7.092;2024-01-30T08:30:27;11.50;;;5.90;;
81841;SDS011;71284;50.918;7.092;2024-01-30T08:32:54;4.90;;;4.45;;
81841;SDS011;71284;50.918;7.092;2024-01-30T08:35:20;5.55;;;4.37;;
81841;SDS011;71284;50.918;7.092;2024-01-30T08:37:47;8.57;;;5.72;;
81841;SDS011;71284;50.918;7.092;2024-01-30T08:40:13;6.53;;;4.60;;
81841;SDS011;71284;50.918;7.092;2024-01-30T08:42:40;15.30;;;5.00;;
81841;SDS011;71284;50.918;7.092;2024-01-30T08:45:08;9.90;;;5.60;;
81841;SDS011;71284;50.918;7.092;2024-01-30T08:47:35;4.95;;;4.65;;
81841;SDS011;71284;50.918;7.092;2024-01-30T08:50:01;5.62;;;4.72;;
81841;SDS011;71284;50.918;7.092;2024-01-30T08:52:28;15.15;;;6.85;;
81841;SDS011;71284;50.918;7.092;2024-01-30T08:54:55;6.32;;;5.28;;
81841;SDS011;71284;50.918;7.092;2024-01-30T08:57:21;8.68;;;5.60;;
81841;SDS011;71284;50.918;7.092;2024-01-30T08:59:48;5.90;;;4.55;;
81841;SDS011;71284;50.918;7.092;2024-01-30T09:02:14;5.28;;;4.62;;
81841;SDS011;71284;50.918;7.092;2024-01-30T09:04:41;12.23;;;4.53;;
81841;SDS011;71284;50.918;7.092;2024-01-30T09:07:08;5.18;;;4.47;;
81841;SDS011;71284;50.918;7.092;2024-01-30T09:09:34;5.90;;;5.30;;
81841;SDS011;71284;50.918;7.092;2024-01-30T09:12:01;6.18;;;5.55;;
81841;SDS011;71284;50.918;7.092;2024-01-30T09:14:27;6.20;;;4.20;;
81841;SDS011;71284;50.918;7.092;2024-01-30T09:16:54;4.65;;;4.05;;
81841;SDS011;71284;50.918;7.092;2024-01-30T09:19:21;8.02;;;4.60;;
81841;SDS011;71284;50.918;7.092;2024-01-30T09:21:47;7.37;;;4.50;;
81841;SDS011;71284;50.918;7.092;2024-01-30T09:24:14;5.70;;;5.10;;
81841;SDS011;71284;50.918;7.092;2024-01-30T09:26:40;5.30;;;4.55;;
81841;SDS011;71284;50.918;7.092;2024-01-30T09:29:07;3.97;;;3.55;;
81841;SDS011;71284;50.918;7.092;2024-01-30T09:31:34;12.97;;;4.53;;
81841;SDS011;71284;50.918;7.092;2024-01-30T09:34:00;11.63;;;4.40;;
81841;SDS011;71284;50.918;7.092;2024-01-30T09:36:27;6.40;;;4.00;;
81841;SDS011;71284;50.918;7.092;2024-01-30T09:38:53;6.40;;;4.00;;
81841;SDS011;71284;50.918;7.092;2024-01-30T09:41:20;12.77;;;5.60;;
81841;SDS011;71284;50.918;7.092;2024-01-30T09:43:47;8.10;;;4.20;;
81841;SDS011;71284;50.918;7.092;2024-01-30T09:46:14;7.00;;;4.37;;
81841;SDS011;71284;50.918;7.092;2024-01-30T09:48:41;4.67;;;4.37;;
81841;SDS011;71284;50.918;7.092;2024-01-30T09:51:09;5.17;;;4.70;;
81841;SDS011;71284;50.918;7.092;2024-01-30T09:53:35;4.87;;;3.97;;
81841;SDS011;71284;50.918;7.092;2024-01-30T09:56:01;7.43;;;4.67;;
81841;SDS011;71284;50.918;7.092;2024-01-30T09:58:27;5.10;;;3.90;;
81841;SDS011;71284;50.918;7.092;2024-01-30T10:00:54;6.73;;;5.87;;
81841;SDS011;71284;50.918;7.092;2024-01-30T10:03:21;11.30;;;4.50;;
81841;SDS011;71284;50.918;7.092;2024-01-30T10:05:50;4.17;;;3.57;;
81841;SDS011;71284;50.918;7.092;2024-01-30T10:08:17;4.80;;;4.40;;
81841;SDS011;71284;50.918;7.092;2024-01-30T10:10:45;8.10;;;4.80;;
81841;SDS011;71284;50.918;7.092;2024-01-30T10:13:10;5.03;;;4.60;;
81841;SDS011;71284;50.918;7.092;2024-01-30T10:15:37;13.77;;;5.40;;
81841;SDS011;71284;50.918;7.092;2024-01-30T10:18:03;10.60;;;4.13;;
81841;SDS011;71284;50.918;7.092;2024-01-30T10:20:30;7.47;;;5.10;;
81841;SDS011;71284;50.918;7.092;2024-01-30T10:22:57;9.10;;;4.20;;
81841;SDS011;71284;50.918;7.092;2024-01-30T10:25:23;11.97;;;5.87;;
81841;SDS011;71284;50.918;7.092;2024-01-30T10:27:52;6.13;;;4.13;;
81841;SDS011;71284;50.918;7.092;2024-01-30T10:30:19;7.67;;;4.50;;
81841;SDS011;71284;50.918;7.092;2024-01-30T10:32:46;5.53;;;3.90;;
81841;SDS011;71284;50.918;7.092;2024-01-30T10:35:13;8.30;;;4.63;;
81841;SDS011;71284;50.918;7.092;2024-01-30T10:37:39;4.80;;;3.90;;
81841;SDS011;71284;50.918;7.092;2024-01-30T10:40:06;8.27;;;4.60;;
81841;SDS011;71284;50.918;7.092;2024-01-30T10:42:34;7.80;;;5.60;;
81841;SDS011;71284;50.918;7.092;2024-01-30T10:47:48;10.87;;;4.67;;
81841;SDS011;71284;50.918;7.092;2024-01-30T10:50:26;8.73;;;5.20;;
81841;SDS011;71284;50.918;7.092;2024-01-30T10:52:53;8.53;;;4.53;;
81841;SDS011;71284;50.918;7.092;2024-01-30T10:55:19;4.03;;;3.63;;
81841;SDS011;71284;50.918;7.092;2024-01-30T10:57:46;9.93;;;3.57;;
81841;SDS011;71284;50.918;7.092;2024-01-30T11:00:13;5.93;;;4.60;;
81841;SDS011;71284;50.918;7.092;2024-01-30T11:02:40;3.97;;;3.57;;
81841;SDS011;71284;50.918;7.092;2024-01-30T11:05:08;4.93;;;4.10;;
81841;SDS011;71284;50.918;7.092;2024-01-30T11:07:34;5.10;;;4.63;;
81841;SDS011;71284;50.918;7.092;2024-01-30T11:10:02;5.93;;;5.10;;
81841;SDS011;71284;50.918;7.092;2024-01-30T11:12:28;10.27;;;5.33;;
81841;SDS011;71284;50.918;7.092;2024-01-30T11:20:10;8.30;;;5.90;;
81841;SDS011;71284;50.918;7.092;2024-01-30T11:22:36;6.33;;;4.23;;
81841;SDS011;71284;50.918;7.092;2024-01-30T11:25:02;5.47;;;4.90;;
81841;SDS011;71284;50.918;7.092;2024-01-30T11:27:30;21.97;;;7.90;;
81841;SDS011;71284;50.918;7.092;2024-01-30T11:30:01;11.40;;;6.60;;
81841;SDS011;71284;50.918;7.092;2024-01-30T11:32:27;9.53;;;4.53;;
81841;SDS011;71284;50.918;7.092;2024-01-30T11:34:54;7.43;;;4.90;;
81841;SDS011;71284;50.918;7.092;2024-01-30T11:37:20;9.27;;;6.70;;
81841;SDS011;71284;50.918;7.092;2024-01-30T11:39:48;14.03;;;6.03;;
81841;SDS011;71284;50.918;7.092;2024-01-30T11:42:13;9.93;;;6.87;;
81841;SDS011;71284;50.918;7.092;2024-01-30T11:44:40;11.07;;;6.00;;
81841;SDS011;71284;50.918;7.092;2024-01-30T11:47:07;5.90;;;4.33;;
81841;SDS011;71284;50.918;7.092;2024-01-30T11:49:33;6.27;;;5.10;;
81841;SDS011;71284;50.918;7.092;2024-01-30T11:52:00;5.83;;;4.20;;
81841;SDS011;71284;50.918;7.092;2024-01-30T11:54:26;13.60;;;5.30;;
81841;SDS011;71284;50.918;7.092;2024-01-30T11:56:53;4.97;;;3.73;;
81841;SDS011;71284;50.918;7.092;2024-01-30T11:59:20;11.13;;;5.47;;
81841;SDS011;71284;50.918;7.092;2024-01-30T12:01:46;6.90;;;4.77;;
81841;SDS011;71284;50.918;7.092;2024-01-30T12:04:13;8.37;;;5.83;;
81841;SDS011;71284;50.918;7.092;2024-01-30T12:06:39;9.90;;;4.53;;
81841;SDS011;71284;50.918;7.092;2024-01-30T12:09:06;4.00;;;3.20;;
81841;SDS011;71284;50.918;7.092;2024-01-30T12:11:33;16.63;;;8.87;;
81841;SDS011;71284;50.918;7.092;2024-01-30T12:13:59;11.30;;;5.50;;
81841;SDS011;71284;50.918;7.092;2024-01-30T12:16:26;5.37;;;4.17;;
81841;SDS011;71284;50.918;7.092;2024-01-30T12:19:00;13.37;;;4.70;;
81841;SDS011;71284;50.918;7.092;2024-01-30T12:21:26;6.17;;;4.40;;
81841;SDS011;71284;50.918;7.092;2024-01-30T12:23:53;5.57;;;3.83;;
81841;SDS011;71284;50.918;7.092;2024-01-30T12:26:19;5.17;;;3.90;;
81841;SDS011;71284;50.918;7.092;2024-01-30T12:28:47;10.33;;;3.90;;
81841;SDS011;71284;50.918;7.092;2024-01-30T12:31:13;5.90;;;4.23;;
81841;SDS011;71284;50.918;7.092;2024-01-30T12:33:40;3.90;;;3.47;;
81841;SDS011;71284;50.918;7.092;2024-01-30T12:36:07;6.97;;;3.93;;
81841;SDS011;71284;50.918;7.092;2024-01-30T12:38:33;5.83;;;4.20;;
81841;SDS011;71284;50.918;7.092;2024-01-30T12:41:00;5.47;;;3.80;;
81841;SDS011;71284;50.918;7.092;2024-01-30T12:43:26;5.33;;;4.20;;
81841;SDS011;71284;50.918;7.092;2024-01-30T12:45:53;6.27;;;3.97;;
81841;SDS011;71284;50.918;7.092;2024-01-30T12:48:19;11.97;;;4.50;;
81841;SDS011;71284;50.918;7.092;2024-01-30T12:50:46;13.47;;;4.40;;
81841;SDS011;71284;50.918;7.092;2024-01-30T12:53:13;6.63;;;3.93;;
81841;SDS011;71284;50.918;7.092;2024-01-30T12:55:39;12.40;;;4.97;;
81841;SDS011;71284;50.918;7.092;2024-01-30T12:58:06;4.73;;;4.30;;
81841;SDS011;71284;50.918;7.092;2024-01-30T13:00:32;6.13;;;4.87;;
81841;SDS011;71284;50.918;7.092;2024-01-30T13:02:59;5.23;;;4.07;;
81841;SDS011;71284;50.918;7.092;2024-01-30T13:05:26;8.87;;;5.03;;
81841;SDS011;71284;50.918;7.092;2024-01-30T13:07:52;6.13;;;3.97;;
81841;SDS011;71284;50.918;7.092;2024-01-30T13:10:19;5.73;;;3.80;;
81841;SDS011;71284;50.918;7.092;2024-01-30T13:12:45;4.23;;;3.57;;
81841;SDS011;71284;50.918;7.092;2024-01-30T13:15:12;4.60;;;4.00;;
81841;SDS011;71284;50.918;7.092;2024-01-30T13:17:39;9.77;;;3.53;;
81841;SDS011;71284;50.918;7.092;2024-01-30T13:20:05;8.80;;;4.00;;
81841;SDS011;71284;50.918;7.092;2024-01-30T13:22:33;5.53;;;3.43;;
81841;SDS011;71284;50.918;7.092;2024-01-30T13:25:00;5.07;;;3.87;;
81841;SDS011;71284;50.918;7.092;2024-01-30T13:27:26;8.07;;;3.47;;
81841;SDS011;71284;50.918;7.092;2024-01-30T13:29:53;7.60;;;3.53;;
81841;SDS011;71284;50.918;7.092;2024-01-30T13:32:19;15.70;;;4.63;;
81841;SDS011;71284;50.918;7.092;2024-01-30T13:34:46;7.40;;;4.13;;
81841;SDS011;71284;50.918;7.092;2024-01-30T13:37:12;5.33;;;3.60;;
81841;SDS011;71284;50.918;7.092;2024-01-30T13:39:39;5.23;;;4.33;;
81841;SDS011;71284;50.918;7.092;2024-01-30T13:42:06;9.47;;;4.80;;
81841;SDS011;71284;50.918;7.092;2024-01-30T13:44:32;7.57;;;3.93;;
81841;SDS011;71284;50.918;7.092;2024-01-30T13:46:59;9.13;;;4.63;;
81841;SDS011;71284;50.918;7.092;2024-01-30T13:49:25;4.43;;;3.53;;
81841;SDS011;71284;50.918;7.092;2024-01-30T13:51:52;8.80;;;4.50;;
81841;SDS011;71284;50.918;7.092;2024-01-30T13:54:19;6.90;;;4.27;;
81841;SDS011;71284;50.918;7.092;2024-01-30T13:56:46;8.23;;;3.60;;
81841;SDS011;71284;50.918;7.092;2024-01-30T13:59:13;7.20;;;3.77;;
81841;SDS011;71284;50.918;7.092;2024-01-30T14:01:39;11.60;;;5.40;;
81841;SDS011;71284;50.918;7.092;2024-01-30T14:04:06;7.70;;;4.97;;
81841;SDS011;71284;50.918;7.092;2024-01-30T14:06:32;7.80;;;4.70;;
81841;SDS011;71284;50.918;7.092;2024-01-30T14:08:59;4.83;;;3.60;;
81841;SDS011;71284;50.918;7.092;2024-01-30T14:11:26;4.27;;;3.90;;
81841;SDS011;71284;50.918;7.092;2024-01-30T14:13:52;4.97;;;3.63;;
81841;SDS011;71284;50.918;7.092;2024-01-30T14:16:19;16.83;;;9.57;;
81841;SDS011;71284;50.918;7.092;2024-01-30T14:18:45;16.03;;;6.87;;
81841;SDS011;71284;50.918;7.092;2024-01-30T14:21:12;9.83;;;6.23;;
81841;SDS011;71284;50.918;7.092;2024-01-30T14:23:39;15.40;;;7.90;;
81841;SDS011;71284;50.918;7.092;2024-01-30T14:26:05;9.67;;;7.00;;
81841;SDS011;71284;50.918;7.092;2024-01-30T14:28:32;8.23;;;5.60;;
81841;SDS011;71284;50.918;7.092;2024-01-30T14:30:59;6.90;;;5.20;;
81841;SDS011;71284;50.918;7.092;2024-01-30T14:33:25;5.80;;;4.50;;
81841;SDS011;71284;50.918;7.092;2024-01-30T14:35:52;11.10;;;4.07;;
81841;SDS011;71284;50.918;7.092;2024-01-30T14:38:20;11.60;;;4.37;;
81841;SDS011;71284;50.918;7.092;2024-01-30T14:40:46;6.33;;;4.70;;
81841;SDS011;71284;50.918;7.092;2024-01-30T14:43:13;6.23;;;5.07;;
81841;SDS011;71284;50.918;7.092;2024-01-30T14:45:40;6.90;;;4.43;;
81841;SDS011;71284;50.918;7.092;2024-01-30T14:48:07;7.33;;;4.57;;
81841;SDS011;71284;50.918;7.092;2024-01-30T14:50:33;11.10;;;5.30;;